Twin Lakes, CO (81251)

6:25 PM MST on December 04, 2016 (GMT -0700)
| | Change Station

Elev -9999 ft 0.00 °N, 0.00 °E | Updated

Clear
Clear
27 °F
Feels Like 16 °F
N
12
Wind Variable Wind from WSW
Gusts 18 mph

Today
High -- | Low -- °F
--% Chance of Precip.
Yesterday
High -- | Low -- °F
Precip. -- in
Pressure 29.97 in
Visibility 10.0 miles
Clouds Overcast 5500 ft
Windchill 16 °F
Dew Point 9 °F
Humidity 45%
Rainfall --
Snow Depth Not available.
7:09 AM 4:42 PM
Waxing Crescent, 27% visible
METAR KLXV 050053Z AUTO 36009G18KT 10SM OVC055 M02/M11 A2999 RMK AO2 SLP148 T10171111
Pressure 29.97 in
Visibility 10.0 miles
Clouds Overcast 5500 ft
Windchill 16 °F
Dew Point 9 °F
Humidity 45%
Rainfall --
Snow Depth Not available.
7:09 AM 4:42 PM
Waxing Crescent, 27% visible
METAR KLXV 050053Z AUTO 36009G18KT 10SM OVC055 M02/M11 A2999 RMK AO2 SLP148 T10171111

10-Day Weather Forecast

Almanac

Astronomy

Dec. 04, 2016 Rise Set
Actual Time
Civil Twilight
Nautical Twilight
Astronomical Twilight
Moon
Length of Visible Light
Length of Day
Tomorrow will be .
, % of the Moon is Illuminated

Today's Extremes

State Highs State Lows

Community

WunderPhotos

Upload Photos

1,955,734 photos uploaded!

WunderBlog® & News

Nearby

Air Quality

  Air Quality AQ Index Pollutant
Not available.

Snow Depth

Station Depth Elevation

Earthquake Activity

City Distance Mag. Time & Date
Minimum magnitude displayed is 2.5.

Coastal Water Temperatures

Place Temperature

Stations

Nearby Weather Stations

Station Location Temp. Windchill Dew Point Humidity Wind Precip. Elev Updated Type
                   

Watches & Warnings

There are currently no watches in effect.